Liberty Farms, California
Current Conditions -  °F | °C
As of 8:53 PM on Sunday 19 Oct 2014 (Local Time) from KVCB Reporting Station
Clear Clear  
Wind Chill: 68°   Ceiling: Unl
Heat Index: 68°   Visibility: 10mi
Dew Point: 56°   Wind: 5mph
Humidity: 65%   Direction: 190°S
Pressure: 29.86"   Gusts: NA
Location:  38.4183°N, 121.778°W
Report Text: KVCB 200353Z AUTO 19004KT 10SM CLR 20/13 A2986 RMK AO2 SLP109 T02000133 TSNO
Loading
Personal Weather Stations






























Interactive Weather Map
Tropical Storm Tracking
New forecast layout! Learn more

10-Day Weather Forecast

Advertisements
Track Severe Weather on mobile